Murden — AELE — position and weather

sailwx.info

Track history (hours):
 
Tides and Currents Weather Stations Pressure Air Temp Water Temp Dewpoint Dewpoint Depression Visibility Wind Speed Wind Dir Waves Ship Positions

Murden

Last reported at 2017-Oct-22 14:52 UTC. Time now 2017-Oct-22 19:02 UTC.
Position N 37°50' W 075°59'.

Length 50 m; draft 1.8 m.

Type: Other ship. MMSI: 369970571.

Date/timePositionNaut miles runAvg speedWind from/ knotsBaromVisibWave heightAir tempDewpointWater temp
2017-Oct-22 14:52N 37°50' W 075°59'0 0.8
2017-Oct-22 14:28N 37°50' W 075°59'0 0.8
2017-Oct-22 14:00N 37°50' W 075°59'0 0.5
2017-Oct-22 13:30N 37°50' W 075°59'1 2.0
2017-Oct-22 12:58N 37°50' W 076°00'1 1.2
2017-Oct-22 12:30N 37°50' W 075°60'1 1.4
2017-Oct-22 11:36N 37°50' W 075°58'0 3.3
2017-Oct-22 11:30N 37°50' W 075°59'1 1.2
2017-Oct-22 10:40N 37°50' W 075°60'0 0.3
2017-Oct-22 10:30N 37°50' W 075°60'0 0.0
2017-Oct-22 07:24N 37°50' W 075°60'0 0.0
2017-Oct-22 05:52N 37°50' W 075°60'0 0.0
2017-Oct-22 05:23N 37°50' W 075°60'0 0.0
2017-Oct-22 05:00N 37°50' W 075°60'0 0.0
2017-Oct-22 04:08N 37°50' W 075°60'0 0.0
2017-Oct-22 03:59N 37°50' W 075°60'0 0.0
2017-Oct-22 03:29N 37°50' W 075°60'0 0.0
2017-Oct-22 02:55N 37°50' W 075°60'0 0.0
2017-Oct-22 02:29N 37°50' W 075°60'1 0.1
2017-Oct-21 16:22N 37°50' W 075°59'0 0.0
2017-Oct-21 14:45N 37°50' W 075°59'1 2.1
2017-Oct-21 14:30N 37°50' W 075°59'0 0.1
2017-Oct-21 11:30N 37°50' W 075°60'1 0.1
2017-Oct-20 11:43N 37°50' W 075°58'0 1.1
2017-Oct-20 11:29N 37°50' W 075°59'1 0.4
2017-Oct-20 08:44N 37°50' W 075°60'0 0.0
2017-Oct-20 08:23N 37°50' W 075°60'0 0.0
2017-Oct-20 08:00N 37°50' W 075°60'0 0.0
2017-Oct-20 07:29N 37°50' W 075°60'0 0.0
2017-Oct-20 06:59N 37°50' W 075°60'0 0.0
2017-Oct-20 06:30N 37°50' W 075°60'0 0.0
2017-Oct-20 06:00N 37°50' W 075°60'0 0.0
2017-Oct-20 05:30N 37°50' W 075°60'0 0.0
2017-Oct-20 05:00N 37°50' W 075°60'0 0.0
2017-Oct-20 04:30N 37°50' W 075°60'0 0.0
2017-Oct-20 04:00N 37°50' W 075°60'0 0.0
2017-Oct-20 03:30N 37°50' W 075°60'0 0.0
2017-Oct-20 03:00N 37°50' W 075°60'0 0.0
2017-Oct-20 02:30N 37°50' W 075°60'1 0.1
2017-Oct-19 15:01N 37°50' W 075°59'1 2.2
2017-Oct-19 14:47N 37°50' W 075°60'0 0.9
2017-Oct-19 14:25N 37°50' W 076°00'1 2.1
2017-Oct-19 13:58N 37°50' W 075°59'0 0.8
2017-Oct-19 13:24N 37°50' W 075°59'1 1.3
2017-Oct-19 12:59N 37°50' W 075°59'1 1.9
2017-Oct-19 12:26N 37°50' W 076°00'1 2.1
2017-Oct-19 11:54N 37°50' W 075°59'0 1.1
2017-Oct-19 11:29N 37°50' W 075°59'1 1.0
2017-Oct-19 10:52N 37°50' W 075°59'0 0.7
2017-Oct-19 10:07N 37°50' W 075°60'0 0.0
2017-Oct-19 09:53N 37°50' W 075°60'0 0.0
2017-Oct-19 09:21N 37°50' W 075°60'0 0.0
2017-Oct-19 08:14N 37°50' W 075°60'0 0.0
2017-Oct-19 08:00N 37°50' W 075°60'0 0.0
2017-Oct-19 07:30N 37°50' W 075°60'3 0.1
2017-Oct-18 10:58N 37°49' W 075°57'3 3.8
2017-Oct-18 10:19N 37°50' W 075°60'0 0.0
2017-Oct-18 09:58N 37°50' W 075°60'0 0.0
2017-Oct-18 09:12N 37°50' W 075°60'0 0.0
2017-Oct-18 09:00N 37°50' W 075°60'0 0.0
2017-Oct-18 08:29N 37°50' W 075°60'  
2017-Oct-15 16:41N 37°50' W 075°59'0 0.1
2017-Oct-15 14:50N 37°50' W 075°59'0 0.3
2017-Oct-15 13:26N 37°50' W 075°59'0 0.8
2017-Oct-15 12:59N 37°50' W 075°59'1 1.9
2017-Oct-15 12:29N 37°50' W 076°00'1 1.2
2017-Oct-15 11:23N 37°50' W 075°59'0 0.3
2017-Oct-15 11:00N 37°50' W 075°59'1 1.7
2017-Oct-15 10:30N 37°50' W 075°60'0 0.4
2017-Oct-15 10:00N 37°50' W 075°60'0 0.0
2017-Oct-15 09:30N 37°50' W 075°60'0 0.0
2017-Oct-15 09:00N 37°50' W 075°60'0 0.0
2017-Oct-15 08:25N 37°50' W 075°60'0 0.0
2017-Oct-15 06:37N 37°50' W 075°60'0 0.0
2017-Oct-15 05:59N 37°50' W 075°60'0 0.0
2017-Oct-15 05:11N 37°50' W 075°60'0 0.0
2017-Oct-15 04:58N 37°50' W 075°60'0 0.0
2017-Oct-15 04:30N 37°50' W 075°60'0 0.0
2017-Oct-15 03:13N 37°50' W 075°60'0 0.0
2017-Oct-15 03:00N 37°50' W 075°60'0 0.0
2017-Oct-15 02:28N 37°50' W 075°60'0 0.0
2017-Oct-15 01:51N 37°50' W 075°60'0 0.0
2017-Oct-15 01:09N 37°50' W 075°60'0 0.0
2017-Oct-15 00:54N 37°50' W 075°60'0 0.0
2017-Oct-15 00:20N 37°50' W 075°60'0 0.0
2017-Oct-14 23:52N 37°50' W 075°60'0 0.0
2017-Oct-14 23:17N 37°50' W 075°60'0 0.0
2017-Oct-14 22:54N 37°50' W 075°60'0 0.0
2017-Oct-14 22:30N 37°50' W 075°60'0 0.0
2017-Oct-14 21:52N 37°50' W 075°60'0 0.6
2017-Oct-14 21:23N 37°50' W 076°00'0 0.4
2017-Oct-14 20:53N 37°50' W 075°60'0 0.6
2017-Oct-14 20:27N 37°50' W 076°00'1 1.4
2017-Oct-14 19:26N 37°50' W 075°59'1 1.2
2017-Oct-14 18:58N 37°50' W 075°59'1 1.7
2017-Oct-14 18:25N 37°50' W 076°00'1 1.4
2017-Oct-14 17:37N 37°50' W 075°59'0 0.9
2017-Oct-14 17:21N 37°50' W 075°59'0 1.1
2017-Oct-14 16:58N 37°50' W 075°59'1 1.5
2017-Oct-14 16:20N 37°50' W 076°00'1 1.8
2017-Oct-14 15:37N 37°50' W 075°59'0 0.3
2017-Oct-14 15:30N 37°50' W 075°59'0 0.9
2017-Oct-14 14:58N 37°50' W 075°59'1 1.2
2017-Oct-14 14:23N 37°50' W 075°60'0 0.6
2017-Oct-14 14:00N 37°50' W 075°60'  
Track history (hours):
 
Tides and Currents Weather Stations Pressure Air Temp Water Temp Dewpoint Dewpoint Depression Visibility Wind Speed Wind Dir Waves Ship Positions

Murden

Last reported at 2017-Oct-22 14:52 UTC. Time now 2017-Oct-22 19:02 UTC.
Position N 37°50' W 075°59'.

Length 50 m; draft 1.8 m.

Type: Other ship. MMSI: 369970571.

Date/timePositionNaut miles runAvg speedWind from/ knotsBaromVisibWave heightAir tempDewpointWater temp
2017-Oct-22 14:52N 37°50' W 075°59'0 0.8
2017-Oct-22 14:28N 37°50' W 075°59'0 0.8
2017-Oct-22 14:00N 37°50' W 075°59'0 0.5
2017-Oct-22 13:30N 37°50' W 075°59'1 2.0
2017-Oct-22 12:58N 37°50' W 076°00'1 1.2
2017-Oct-22 12:30N 37°50' W 075°60'1 1.4
2017-Oct-22 11:36N 37°50' W 075°58'0 3.3
2017-Oct-22 11:30N 37°50' W 075°59'1 1.2
2017-Oct-22 10:40N 37°50' W 075°60'0 0.3
2017-Oct-22 10:30N 37°50' W 075°60'0 0.0
2017-Oct-22 07:24N 37°50' W 075°60'0 0.0
2017-Oct-22 05:52N 37°50' W 075°60'0 0.0
2017-Oct-22 05:23N 37°50' W 075°60'0 0.0
2017-Oct-22 05:00N 37°50' W 075°60'0 0.0
2017-Oct-22 04:08N 37°50' W 075°60'0 0.0
2017-Oct-22 03:59N 37°50' W 075°60'0 0.0
2017-Oct-22 03:29N 37°50' W 075°60'0 0.0
2017-Oct-22 02:55N 37°50' W 075°60'0 0.0
2017-Oct-22 02:29N 37°50' W 075°60'1 0.1
2017-Oct-21 16:22N 37°50' W 075°59'0 0.0
2017-Oct-21 14:45N 37°50' W 075°59'1 2.1
2017-Oct-21 14:30N 37°50' W 075°59'0 0.1
2017-Oct-21 11:30N 37°50' W 075°60'1 0.1
2017-Oct-20 11:43N 37°50' W 075°58'0 1.1
2017-Oct-20 11:29N 37°50' W 075°59'1 0.4
2017-Oct-20 08:44N 37°50' W 075°60'0 0.0
2017-Oct-20 08:23N 37°50' W 075°60'0 0.0
2017-Oct-20 08:00N 37°50' W 075°60'0 0.0
2017-Oct-20 07:29N 37°50' W 075°60'0 0.0
2017-Oct-20 06:59N 37°50' W 075°60'0 0.0
2017-Oct-20 06:30N 37°50' W 075°60'0 0.0
2017-Oct-20 06:00N 37°50' W 075°60'0 0.0
2017-Oct-20 05:30N 37°50' W 075°60'0 0.0
2017-Oct-20 05:00N 37°50' W 075°60'0 0.0
2017-Oct-20 04:30N 37°50' W 075°60'0 0.0
2017-Oct-20 04:00N 37°50' W 075°60'0 0.0
2017-Oct-20 03:30N 37°50' W 075°60'0 0.0
2017-Oct-20 03:00N 37°50' W 075°60'0 0.0
2017-Oct-20 02:30N 37°50' W 075°60'1 0.1
2017-Oct-19 15:01N 37°50' W 075°59'1 2.2
2017-Oct-19 14:47N 37°50' W 075°60'0 0.9
2017-Oct-19 14:25N 37°50' W 076°00'1 2.1
2017-Oct-19 13:58N 37°50' W 075°59'0 0.8
2017-Oct-19 13:24N 37°50' W 075°59'1 1.3
2017-Oct-19 12:59N 37°50' W 075°59'1 1.9
2017-Oct-19 12:26N 37°50' W 076°00'1 2.1
2017-Oct-19 11:54N 37°50' W 075°59'0 1.1
2017-Oct-19 11:29N 37°50' W 075°59'1 1.0
2017-Oct-19 10:52N 37°50' W 075°59'0 0.7
2017-Oct-19 10:07N 37°50' W 075°60'0 0.0
2017-Oct-19 09:53N 37°50' W 075°60'0 0.0
2017-Oct-19 09:21N 37°50' W 075°60'0 0.0
2017-Oct-19 08:14N 37°50' W 075°60'0 0.0
2017-Oct-19 08:00N 37°50' W 075°60'0 0.0
2017-Oct-19 07:30N 37°50' W 075°60'3 0.1
2017-Oct-18 10:58N 37°49' W 075°57'3 3.8
2017-Oct-18 10:19N 37°50' W 075°60'0 0.0
2017-Oct-18 09:58N 37°50' W 075°60'0 0.0
2017-Oct-18 09:12N 37°50' W 075°60'0 0.0
2017-Oct-18 09:00N 37°50' W 075°60'0 0.0
2017-Oct-18 08:29N 37°50' W 075°60'  
2017-Oct-15 16:41N 37°50' W 075°59'0 0.1
2017-Oct-15 14:50N 37°50' W 075°59'0 0.3
2017-Oct-15 13:26N 37°50' W 075°59'0 0.8
2017-Oct-15 12:59N 37°50' W 075°59'1 1.9
2017-Oct-15 12:29N 37°50' W 076°00'1 1.2
2017-Oct-15 11:23N 37°50' W 075°59'0 0.3
2017-Oct-15 11:00N 37°50' W 075°59'1 1.7
2017-Oct-15 10:30N 37°50' W 075°60'0 0.4
2017-Oct-15 10:00N 37°50' W 075°60'0 0.0
2017-Oct-15 09:30N 37°50' W 075°60'0 0.0
2017-Oct-15 09:00N 37°50' W 075°60'0 0.0
2017-Oct-15 08:25N 37°50' W 075°60'0 0.0
2017-Oct-15 06:37N 37°50' W 075°60'0 0.0
2017-Oct-15 05:59N 37°50' W 075°60'0 0.0
2017-Oct-15 05:11N 37°50' W 075°60'0 0.0
2017-Oct-15 04:58N 37°50' W 075°60'0 0.0
2017-Oct-15 04:30N 37°50' W 075°60'0 0.0
2017-Oct-15 03:13N 37°50' W 075°60'0 0.0
2017-Oct-15 03:00N 37°50' W 075°60'0 0.0
2017-Oct-15 02:28N 37°50' W 075°60'0 0.0
2017-Oct-15 01:51N 37°50' W 075°60'0 0.0
2017-Oct-15 01:09N 37°50' W 075°60'0 0.0
2017-Oct-15 00:54N 37°50' W 075°60'0 0.0
2017-Oct-15 00:20N 37°50' W 075°60'0 0.0
2017-Oct-14 23:52N 37°50' W 075°60'0 0.0
2017-Oct-14 23:17N 37°50' W 075°60'0 0.0
2017-Oct-14 22:54N 37°50' W 075°60'0 0.0
2017-Oct-14 22:30N 37°50' W 075°60'0 0.0
2017-Oct-14 21:52N 37°50' W 075°60'0 0.6
2017-Oct-14 21:23N 37°50' W 076°00'0 0.4
2017-Oct-14 20:53N 37°50' W 075°60'0 0.6
2017-Oct-14 20:27N 37°50' W 076°00'1 1.4
2017-Oct-14 19:26N 37°50' W 075°59'1 1.2
2017-Oct-14 18:58N 37°50' W 075°59'1 1.7
2017-Oct-14 18:25N 37°50' W 076°00'1 1.4
2017-Oct-14 17:37N 37°50' W 075°59'0 0.9
2017-Oct-14 17:21N 37°50' W 075°59'0 1.1
2017-Oct-14 16:58N 37°50' W 075°59'1 1.5
2017-Oct-14 16:20N 37°50' W 076°00'1 1.8
2017-Oct-14 15:37N 37°50' W 075°59'0 0.3
2017-Oct-14 15:30N 37°50' W 075°59'0 0.9
2017-Oct-14 14:58N 37°50' W 075°59'1 1.2
2017-Oct-14 14:23N 37°50' W 075°60'0 0.6
2017-Oct-14 14:00N 37°50' W 075°60'  

Dump ship's entire track history